sensor_id;sensor_type;location;lat;lon;timestamp;P1;durP1;ratioP1;P2;durP2;ratioP2
8098;SDS011;4092;47.876;9.372;2023-05-10T00:00:15;1.43;;;0.60;;
8098;SDS011;4092;47.876;9.372;2023-05-10T00:02:43;0.90;;;0.70;;
8098;SDS011;4092;47.876;9.372;2023-05-10T00:05:10;1.30;;;0.73;;
8098;SDS011;4092;47.876;9.372;2023-05-10T00:07:37;0.90;;;0.70;;
8098;SDS011;4092;47.876;9.372;2023-05-10T00:10:04;0.97;;;0.70;;
8098;SDS011;4092;47.876;9.372;2023-05-10T00:12:33;0.80;;;0.60;;
8098;SDS011;4092;47.876;9.372;2023-05-10T00:15:00;0.90;;;0.60;;
8098;SDS011;4092;47.876;9.372;2023-05-10T00:17:27;0.80;;;0.60;;
8098;SDS011;4092;47.876;9.372;2023-05-10T00:19:56;2.13;;;0.80;;
8098;SDS011;4092;47.876;9.372;2023-05-10T00:22:23;0.90;;;0.70;;
8098;SDS011;4092;47.876;9.372;2023-05-10T00:24:50;7.60;;;0.77;;
8098;SDS011;4092;47.876;9.372;2023-05-10T00:27:17;1.10;;;0.60;;
8098;SDS011;4092;47.876;9.372;2023-05-10T00:29:44;0.80;;;0.60;;
8098;SDS011;4092;47.876;9.372;2023-05-10T00:32:11;1.50;;;0.73;;
8098;SDS011;4092;47.876;9.372;2023-05-10T00:34:39;1.00;;;0.80;;
8098;SDS011;4092;47.876;9.372;2023-05-10T00:37:07;1.10;;;0.70;;
8098;SDS011;4092;47.876;9.372;2023-05-10T00:39:34;1.00;;;0.70;;
8098;SDS011;4092;47.876;9.372;2023-05-10T00:42:01;0.80;;;0.60;;
8098;SDS011;4092;47.876;9.372;2023-05-10T00:44:29;1.63;;;1.20;;
8098;SDS011;4092;47.876;9.372;2023-05-10T00:46:56;1.03;;;0.70;;
8098;SDS011;4092;47.876;9.372;2023-05-10T00:49:24;0.80;;;0.63;;
8098;SDS011;4092;47.876;9.372;2023-05-10T00:51:51;0.90;;;0.70;;
8098;SDS011;4092;47.876;9.372;2023-05-10T00:54:19;0.90;;;0.77;;
8098;SDS011;4092;47.876;9.372;2023-05-10T00:56:46;1.23;;;0.70;;
8098;SDS011;4092;47.876;9.372;2023-05-10T00:59:14;1.53;;;0.80;;
8098;SDS011;4092;47.876;9.372;2023-05-10T01:01:42;0.90;;;0.80;;
8098;SDS011;4092;47.876;9.372;2023-05-10T01:04:10;0.93;;;0.80;;
8098;SDS011;4092;47.876;9.372;2023-05-10T01:06:38;0.90;;;0.63;;
8098;SDS011;4092;47.876;9.372;2023-05-10T01:09:06;0.90;;;0.70;;
8098;SDS011;4092;47.876;9.372;2023-05-10T01:11:34;1.00;;;0.90;;
8098;SDS011;4092;47.876;9.372;2023-05-10T01:14:02;0.90;;;0.67;;
8098;SDS011;4092;47.876;9.372;2023-05-10T01:16:32;0.90;;;0.70;;
8098;SDS011;4092;47.876;9.372;2023-05-10T01:19:02;2.70;;;0.70;;
8098;SDS011;4092;47.876;9.372;2023-05-10T01:21:33;0.90;;;0.77;;
8098;SDS011;4092;47.876;9.372;2023-05-10T01:24:19;1.63;;;1.07;;
8098;SDS011;4092;47.876;9.372;2023-05-10T01:27:19;0.90;;;0.73;;
8098;SDS011;4092;47.876;9.372;2023-05-10T01:30:06;0.90;;;0.70;;
8098;SDS011;4092;47.876;9.372;2023-05-10T01:32:47;1.00;;;0.90;;
8098;SDS011;4092;47.876;9.372;2023-05-10T01:35:21;1.50;;;0.80;;
8098;SDS011;4092;47.876;9.372;2023-05-10T01:37:57;0.80;;;0.60;;
8098;SDS011;4092;47.876;9.372;2023-05-10T01:40:30;1.20;;;0.70;;
8098;SDS011;4092;47.876;9.372;2023-05-10T01:43:03;0.90;;;0.67;;
8098;SDS011;4092;47.876;9.372;2023-05-10T01:45:33;1.00;;;0.90;;
8098;SDS011;4092;47.876;9.372;2023-05-10T01:48:07;1.13;;;0.83;;
8098;SDS011;4092;47.876;9.372;2023-05-10T01:50:36;1.00;;;0.80;;
8098;SDS011;4092;47.876;9.372;2023-05-10T01:53:06;1.53;;;0.80;;
8098;SDS011;4092;47.876;9.372;2023-05-10T01:55:39;0.90;;;0.73;;
8098;SDS011;4092;47.876;9.372;2023-05-10T01:58:10;2.30;;;0.70;;
8098;SDS011;4092;47.876;9.372;2023-05-10T02:00:40;2.60;;;1.50;;
8098;SDS011;4092;47.876;9.372;2023-05-10T02:03:12;0.90;;;0.67;;
8098;SDS011;4092;47.876;9.372;2023-05-10T02:05:41;1.00;;;0.80;;
8098;SDS011;4092;47.876;9.372;2023-05-10T02:08:10;1.57;;;0.90;;
8098;SDS011;4092;47.876;9.372;2023-05-10T02:10:38;0.90;;;0.80;;
8098;SDS011;4092;47.876;9.372;2023-05-10T02:13:06;1.03;;;0.80;;
8098;SDS011;4092;47.876;9.372;2023-05-10T02:15:34;1.33;;;0.97;;
8098;SDS011;4092;47.876;9.372;2023-05-10T02:18:03;0.93;;;0.80;;
8098;SDS011;4092;47.876;9.372;2023-05-10T02:20:32;1.47;;;0.90;;
8098;SDS011;4092;47.876;9.372;2023-05-10T02:23:01;2.97;;;0.90;;
8098;SDS011;4092;47.876;9.372;2023-05-10T02:25:29;1.10;;;0.90;;
8098;SDS011;4092;47.876;9.372;2023-05-10T02:27:59;0.90;;;0.70;;
8098;SDS011;4092;47.876;9.372;2023-05-10T02:30:28;1.10;;;1.00;;
8098;SDS011;4092;47.876;9.372;2023-05-10T02:32:57;1.00;;;0.80;;
8098;SDS011;4092;47.876;9.372;2023-05-10T02:35:25;0.90;;;0.70;;
8098;SDS011;4092;47.876;9.372;2023-05-10T02:37:54;1.00;;;0.70;;
8098;SDS011;4092;47.876;9.372;2023-05-10T02:40:24;0.90;;;0.70;;
8098;SDS011;4092;47.876;9.372;2023-05-10T02:42:54;1.00;;;0.80;;
8098;SDS011;4092;47.876;9.372;2023-05-10T02:45:23;0.90;;;0.70;;
8098;SDS011;4092;47.876;9.372;2023-05-10T02:47:54;1.10;;;1.00;;
8098;SDS011;4092;47.876;9.372;2023-05-10T02:50:21;1.37;;;0.97;;
8098;SDS011;4092;47.876;9.372;2023-05-10T02:52:51;5.80;;;1.90;;
8098;SDS011;4092;47.876;9.372;2023-05-10T02:55:34;0.90;;;0.70;;
8098;SDS011;4092;47.876;9.372;2023-05-10T02:58:04;0.90;;;0.60;;
8098;SDS011;4092;47.876;9.372;2023-05-10T03:00:31;10.43;;;0.90;;
8098;SDS011;4092;47.876;9.372;2023-05-10T03:02:59;1.00;;;0.70;;
8098;SDS011;4092;47.876;9.372;2023-05-10T03:05:26;0.90;;;0.70;;
8098;SDS011;4092;47.876;9.372;2023-05-10T03:07:54;0.90;;;0.63;;
8098;SDS011;4092;47.876;9.372;2023-05-10T03:10:22;5.23;;;0.80;;
8098;SDS011;4092;47.876;9.372;2023-05-10T03:13:01;0.90;;;0.70;;
8098;SDS011;4092;47.876;9.372;2023-05-10T03:15:37;1.10;;;1.00;;
8098;SDS011;4092;47.876;9.372;2023-05-10T03:18:14;1.33;;;0.83;;
8098;SDS011;4092;47.876;9.372;2023-05-10T03:20:46;1.90;;;1.50;;
8098;SDS011;4092;47.876;9.372;2023-05-10T03:23:21;0.90;;;0.70;;
8098;SDS011;4092;47.876;9.372;2023-05-10T03:25:50;1.00;;;0.90;;
8098;SDS011;4092;47.876;9.372;2023-05-10T03:28:18;1.67;;;0.80;;
8098;SDS011;4092;47.876;9.372;2023-05-10T03:30:47;1.23;;;0.80;;
8098;SDS011;4092;47.876;9.372;2023-05-10T03:33:15;1.33;;;0.77;;
8098;SDS011;4092;47.876;9.372;2023-05-10T03:35:42;1.50;;;1.20;;
8098;SDS011;4092;47.876;9.372;2023-05-10T03:38:10;1.20;;;0.73;;
8098;SDS011;4092;47.876;9.372;2023-05-10T03:40:39;1.30;;;0.87;;
8098;SDS011;4092;47.876;9.372;2023-05-10T03:43:06;2.07;;;0.90;;
8098;SDS011;4092;47.876;9.372;2023-05-10T03:45:33;1.00;;;0.80;;
8098;SDS011;4092;47.876;9.372;2023-05-10T03:48:00;1.20;;;0.90;;
8098;SDS011;4092;47.876;9.372;2023-05-10T03:50:27;1.50;;;1.17;;
8098;SDS011;4092;47.876;9.372;2023-05-10T03:52:54;1.33;;;1.00;;
8098;SDS011;4092;47.876;9.372;2023-05-10T03:55:22;1.47;;;1.23;;
8098;SDS011;4092;47.876;9.372;2023-05-10T03:57:50;1.37;;;1.10;;
8098;SDS011;4092;47.876;9.372;2023-05-10T04:00:19;1.10;;;0.83;;
8098;SDS011;4092;47.876;9.372;2023-05-10T04:02:46;1.57;;;1.20;;
8098;SDS011;4092;47.876;9.372;2023-05-10T04:05:13;1.30;;;1.20;;
8098;SDS011;4092;47.876;9.372;2023-05-10T04:07:40;1.33;;;0.97;;
8098;SDS011;4092;47.876;9.372;2023-05-10T04:10:07;1.50;;;1.37;;
8098;SDS011;4092;47.876;9.372;2023-05-10T04:12:35;2.07;;;1.40;;
8098;SDS011;4092;47.876;9.372;2023-05-10T04:15:03;1.60;;;1.50;;
8098;SDS011;4092;47.876;9.372;2023-05-10T04:17:31;1.23;;;1.13;;
8098;SDS011;4092;47.876;9.372;2023-05-10T04:19:58;1.70;;;1.53;;
8098;SDS011;4092;47.876;9.372;2023-05-10T04:22:25;1.27;;;1.00;;
8098;SDS011;4092;47.876;9.372;2023-05-10T04:24:54;1.20;;;1.00;;
8098;SDS011;4092;47.876;9.372;2023-05-10T04:27:21;1.87;;;1.47;;
8098;SDS011;4092;47.876;9.372;2023-05-10T04:29:50;1.87;;;1.37;;
8098;SDS011;4092;47.876;9.372;2023-05-10T04:32:22;1.87;;;1.40;;
8098;SDS011;4092;47.876;9.372;2023-05-10T04:34:49;1.30;;;1.20;;
8098;SDS011;4092;47.876;9.372;2023-05-10T04:37:17;0.90;;;0.80;;
8098;SDS011;4092;47.876;9.372;2023-05-10T04:39:44;2.00;;;1.00;;
8098;SDS011;4092;47.876;9.372;2023-05-10T04:42:11;3.70;;;1.23;;
8098;SDS011;4092;47.876;9.372;2023-05-10T04:44:40;1.40;;;1.30;;
8098;SDS011;4092;47.876;9.372;2023-05-10T04:47:07;1.50;;;1.20;;
8098;SDS011;4092;47.876;9.372;2023-05-10T04:49:35;1.73;;;1.20;;
8098;SDS011;4092;47.876;9.372;2023-05-10T04:52:02;1.00;;;0.83;;
8098;SDS011;4092;47.876;9.372;2023-05-10T04:54:29;1.77;;;1.00;;
8098;SDS011;4092;47.876;9.372;2023-05-10T04:56:56;0.90;;;0.77;;
8098;SDS011;4092;47.876;9.372;2023-05-10T04:59:23;1.77;;;1.00;;
8098;SDS011;4092;47.876;9.372;2023-05-10T05:01:50;1.30;;;1.07;;
8098;SDS011;4092;47.876;9.372;2023-05-10T05:04:17;1.00;;;0.90;;
8098;SDS011;4092;47.876;9.372;2023-05-10T05:06:45;1.80;;;1.23;;
8098;SDS011;4092;47.876;9.372;2023-05-10T05:09:12;1.43;;;1.23;;
8098;SDS011;4092;47.876;9.372;2023-05-10T05:11:39;1.10;;;1.00;;
8098;SDS011;4092;47.876;9.372;2023-05-10T05:14:06;2.10;;;1.13;;
8098;SDS011;4092;47.876;9.372;2023-05-10T05:16:33;1.33;;;1.23;;
8098;SDS011;4092;47.876;9.372;2023-05-10T05:19:00;1.70;;;1.37;;
8098;SDS011;4092;47.876;9.372;2023-05-10T05:21:27;1.83;;;0.90;;
8098;SDS011;4092;47.876;9.372;2023-05-10T05:23:55;1.10;;;0.90;;
8098;SDS011;4092;47.876;9.372;2023-05-10T05:26:22;1.37;;;1.10;;
8098;SDS011;4092;47.876;9.372;2023-05-10T05:28:49;1.47;;;1.33;;
8098;SDS011;4092;47.876;9.372;2023-05-10T05:31:19;1.43;;;1.13;;
8098;SDS011;4092;47.876;9.372;2023-05-10T05:33:46;1.33;;;1.10;;
8098;SDS011;4092;47.876;9.372;2023-05-10T05:36:13;1.10;;;0.90;;
8098;SDS011;4092;47.876;9.372;2023-05-10T05:38:40;1.67;;;0.90;;
8098;SDS011;4092;47.876;9.372;2023-05-10T05:41:09;1.87;;;1.77;;
8098;SDS011;4092;47.876;9.372;2023-05-10T05:43:36;1.30;;;1.10;;
8098;SDS011;4092;47.876;9.372;2023-05-10T05:46:03;1.50;;;1.07;;
8098;SDS011;4092;47.876;9.372;2023-05-10T05:48:30;1.17;;;1.03;;
8098;SDS011;4092;47.876;9.372;2023-05-10T05:50:57;1.50;;;1.13;;
8098;SDS011;4092;47.876;9.372;2023-05-10T05:53:24;1.40;;;1.30;;
8098;SDS011;4092;47.876;9.372;2023-05-10T05:55:51;1.50;;;1.40;;
8098;SDS011;4092;47.876;9.372;2023-05-10T05:58:21;2.10;;;1.40;;
8098;SDS011;4092;47.876;9.372;2023-05-10T06:00:48;1.57;;;1.20;;
8098;SDS011;4092;47.876;9.372;2023-05-10T06:03:16;2.27;;;1.40;;
8098;SDS011;4092;47.876;9.372;2023-05-10T06:05:44;1.30;;;1.13;;
8098;SDS011;4092;47.876;9.372;2023-05-10T06:08:10;1.90;;;1.80;;
8098;SDS011;4092;47.876;9.372;2023-05-10T06:10:37;1.73;;;1.50;;
8098;SDS011;4092;47.876;9.372;2023-05-10T06:13:05;1.97;;;1.60;;
8098;SDS011;4092;47.876;9.372;2023-05-10T06:15:33;2.23;;;1.40;;
8098;SDS011;4092;47.876;9.372;2023-05-10T06:18:00;1.60;;;1.50;;
8098;SDS011;4092;47.876;9.372;2023-05-10T06:20:27;1.37;;;1.10;;
8098;SDS011;4092;47.876;9.372;2023-05-10T06:22:56;2.67;;;1.87;;
8098;SDS011;4092;47.876;9.372;2023-05-10T06:25:23;2.27;;;2.07;;
8098;SDS011;4092;47.876;9.372;2023-05-10T06:27:50;1.23;;;1.13;;
8098;SDS011;4092;47.876;9.372;2023-05-10T06:30:22;1.37;;;1.27;;
8098;SDS011;4092;47.876;9.372;2023-05-10T06:32:53;2.20;;;1.80;;
8098;SDS011;4092;47.876;9.372;2023-05-10T06:35:21;2.83;;;1.60;;
8098;SDS011;4092;47.876;9.372;2023-05-10T06:37:48;2.17;;;1.63;;
8098;SDS011;4092;47.876;9.372;2023-05-10T06:40:15;4.37;;;2.23;;
8098;SDS011;4092;47.876;9.372;2023-05-10T06:42:42;4.50;;;3.10;;
8098;SDS011;4092;47.876;9.372;2023-05-10T06:45:11;2.13;;;1.93;;
8098;SDS011;4092;47.876;9.372;2023-05-10T06:47:39;2.17;;;1.97;;
8098;SDS011;4092;47.876;9.372;2023-05-10T06:50:08;1.80;;;1.50;;
8098;SDS011;4092;47.876;9.372;2023-05-10T06:52:36;1.87;;;1.67;;
8098;SDS011;4092;47.876;9.372;2023-05-10T06:55:04;3.93;;;1.97;;
8098;SDS011;4092;47.876;9.372;2023-05-10T06:57:31;3.57;;;2.30;;
8098;SDS011;4092;47.876;9.372;2023-05-10T06:59:58;1.83;;;1.63;;
8098;SDS011;4092;47.876;9.372;2023-05-10T07:02:26;2.97;;;2.57;;
8098;SDS011;4092;47.876;9.372;2023-05-10T07:04:53;1.80;;;1.70;;
8098;SDS011;4092;47.876;9.372;2023-05-10T07:07:21;2.67;;;2.20;;
8098;SDS011;4092;47.876;9.372;2023-05-10T07:09:48;2.03;;;1.70;;
8098;SDS011;4092;47.876;9.372;2023-05-10T07:12:16;2.27;;;2.07;;
8098;SDS011;4092;47.876;9.372;2023-05-10T07:14:43;2.00;;;1.70;;
8098;SDS011;4092;47.876;9.372;2023-05-10T07:17:10;2.53;;;2.17;;
8098;SDS011;4092;47.876;9.372;2023-05-10T07:19:37;1.80;;;1.40;;
8098;SDS011;4092;47.876;9.372;2023-05-10T07:22:04;4.60;;;1.87;;
8098;SDS011;4092;47.876;9.372;2023-05-10T07:24:33;2.30;;;2.10;;
8098;SDS011;4092;47.876;9.372;2023-05-10T07:27:00;2.07;;;1.87;;
8098;SDS011;4092;47.876;9.372;2023-05-10T07:29:27;1.33;;;1.23;;
8098;SDS011;4092;47.876;9.372;2023-05-10T07:31:54;1.60;;;1.50;;
8098;SDS011;4092;47.876;9.372;2023-05-10T07:34:21;1.63;;;1.50;;
8098;SDS011;4092;47.876;9.372;2023-05-10T07:36:48;1.40;;;1.30;;
8098;SDS011;4092;47.876;9.372;2023-05-10T07:39:15;1.83;;;1.57;;
8098;SDS011;4092;47.876;9.372;2023-05-10T07:41:44;3.30;;;1.63;;
8098;SDS011;4092;47.876;9.372;2023-05-10T07:44:11;1.27;;;1.17;;
8098;SDS011;4092;47.876;9.372;2023-05-10T07:46:45;1.40;;;1.30;;
8098;SDS011;4092;47.876;9.372;2023-05-10T07:49:12;2.43;;;2.23;;
8098;SDS011;4092;47.876;9.372;2023-05-10T07:51:39;2.27;;;1.30;;
8098;SDS011;4092;47.876;9.372;2023-05-10T07:54:07;1.57;;;1.30;;
8098;SDS011;4092;47.876;9.372;2023-05-10T07:56:37;1.67;;;1.33;;
8098;SDS011;4092;47.876;9.372;2023-05-10T07:59:08;2.90;;;1.30;;
8098;SDS011;4092;47.876;9.372;2023-05-10T08:01:35;1.50;;;1.40;;
8098;SDS011;4092;47.876;9.372;2023-05-10T08:04:02;1.40;;;1.20;;
8098;SDS011;4092;47.876;9.372;2023-05-10T08:06:29;1.50;;;1.40;;
8098;SDS011;4092;47.876;9.372;2023-05-10T08:08:56;2.33;;;1.87;;
8098;SDS011;4092;47.876;9.372;2023-05-10T08:11:23;1.50;;;1.40;;
8098;SDS011;4092;47.876;9.372;2023-05-10T08:13:52;1.10;;;1.00;;
8098;SDS011;4092;47.876;9.372;2023-05-10T08:16:22;1.30;;;1.13;;
8098;SDS011;4092;47.876;9.372;2023-05-10T08:18:49;1.13;;;1.03;;
8098;SDS011;4092;47.876;9.372;2023-05-10T08:21:18;1.23;;;1.00;;
8098;SDS011;4092;47.876;9.372;2023-05-10T08:23:45;2.70;;;2.43;;
8098;SDS011;4092;47.876;9.372;2023-05-10T08:26:12;0.90;;;0.70;;
8098;SDS011;4092;47.876;9.372;2023-05-10T08:28:39;1.20;;;1.10;;
8098;SDS011;4092;47.876;9.372;2023-05-10T08:31:06;1.97;;;1.47;;
8098;SDS011;4092;47.876;9.372;2023-05-10T08:33:37;1.50;;;1.40;;
8098;SDS011;4092;47.876;9.372;2023-05-10T08:36:04;1.30;;;1.20;;
8098;SDS011;4092;47.876;9.372;2023-05-10T08:38:31;1.40;;;1.00;;
8098;SDS011;4092;47.876;9.372;2023-05-10T08:40:58;1.70;;;1.10;;
8098;SDS011;4092;47.876;9.372;2023-05-10T08:43:28;2.70;;;1.40;;
8098;SDS011;4092;47.876;9.372;2023-05-10T08:45:55;1.30;;;0.90;;
8098;SDS011;4092;47.876;9.372;2023-05-10T08:48:33;1.13;;;1.03;;
8098;SDS011;4092;47.876;9.372;2023-05-10T08:51:40;1.10;;;1.00;;
8098;SDS011;4092;47.876;9.372;2023-05-10T08:54:22;1.37;;;1.27;;
8098;SDS011;4092;47.876;9.372;2023-05-10T08:56:50;1.10;;;1.00;;
8098;SDS011;4092;47.876;9.372;2023-05-10T08:59:18;1.23;;;1.13;;
8098;SDS011;4092;47.876;9.372;2023-05-10T09:01:46;0.90;;;0.73;;
8098;SDS011;4092;47.876;9.372;2023-05-10T09:04:14;2.27;;;1.10;;
8098;SDS011;4092;47.876;9.372;2023-05-10T09:06:42;2.40;;;1.20;;
8098;SDS011;4092;47.876;9.372;2023-05-10T09:09:09;1.00;;;0.90;;
8098;SDS011;4092;47.876;9.372;2023-05-10T09:11:37;1.20;;;1.00;;
8098;SDS011;4092;47.876;9.372;2023-05-10T09:14:04;1.10;;;1.00;;
8098;SDS011;4092;47.876;9.372;2023-05-10T09:16:31;2.03;;;1.30;;
8098;SDS011;4092;47.876;9.372;2023-05-10T09:18:58;1.00;;;0.90;;
8098;SDS011;4092;47.876;9.372;2023-05-10T09:21:25;1.10;;;0.70;;
8098;SDS011;4092;47.876;9.372;2023-05-10T09:23:54;0.90;;;0.70;;
8098;SDS011;4092;47.876;9.372;2023-05-10T09:26:24;0.90;;;0.70;;
8098;SDS011;4092;47.876;9.372;2023-05-10T09:28:52;0.90;;;0.70;;
8098;SDS011;4092;47.876;9.372;2023-05-10T09:38:02;1.00;;;0.90;;
8098;SDS011;4092;47.876;9.372;2023-05-10T09:40:41;0.90;;;0.70;;
8098;SDS011;4092;47.876;9.372;2023-05-10T09:43:22;1.23;;;0.80;;
8098;SDS011;4092;47.876;9.372;2023-05-10T09:45:52;1.10;;;0.80;;
8098;SDS011;4092;47.876;9.372;2023-05-10T09:48:21;1.00;;;0.80;;
8098;SDS011;4092;47.876;9.372;2023-05-10T09:51:16;1.20;;;0.73;;
8098;SDS011;4092;47.876;9.372;2023-05-10T09:54:08;1.10;;;0.70;;
8098;SDS011;4092;47.876;9.372;2023-05-10T09:56:38;0.93;;;0.70;;
8098;SDS011;4092;47.876;9.372;2023-05-10T09:59:06;1.10;;;0.90;;
8098;SDS011;4092;47.876;9.372;2023-05-10T10:01:33;0.93;;;0.80;;
8098;SDS011;4092;47.876;9.372;2023-05-10T10:04:02;1.13;;;0.90;;
8098;SDS011;4092;47.876;9.372;2023-05-10T10:06:34;1.27;;;1.00;;
8098;SDS011;4092;47.876;9.372;2023-05-10T10:09:02;1.43;;;0.90;;
8098;SDS011;4092;47.876;9.372;2023-05-10T10:11:30;1.67;;;1.00;;
8098;SDS011;4092;47.876;9.372;2023-05-10T10:13:59;1.10;;;0.80;;
8098;SDS011;4092;47.876;9.372;2023-05-10T10:16:26;1.00;;;0.80;;
8098;SDS011;4092;47.876;9.372;2023-05-10T10:18:55;0.97;;;0.77;;
8098;SDS011;4092;47.876;9.372;2023-05-10T10:21:22;1.87;;;1.30;;
8098;SDS011;4092;47.876;9.372;2023-05-10T10:23:50;1.43;;;0.70;;
8098;SDS011;4092;47.876;9.372;2023-05-10T10:26:18;0.90;;;0.70;;
8098;SDS011;4092;47.876;9.372;2023-05-10T10:28:48;1.10;;;0.50;;
8098;SDS011;4092;47.876;9.372;2023-05-10T10:31:23;0.90;;;0.60;;
8098;SDS011;4092;47.876;9.372;2023-05-10T10:33:59;1.03;;;0.60;;
8098;SDS011;4092;47.876;9.372;2023-05-10T10:36:29;1.10;;;0.70;;
8098;SDS011;4092;47.876;9.372;2023-05-10T10:38:59;1.20;;;0.60;;
8098;SDS011;4092;47.876;9.372;2023-05-10T10:41:29;0.80;;;0.60;;
8098;SDS011;4092;47.876;9.372;2023-05-10T10:47:04;1.00;;;0.73;;
8098;SDS011;4092;47.876;9.372;2023-05-10T10:49:42;1.00;;;0.60;;
8098;SDS011;4092;47.876;9.372;2023-05-10T10:52:24;0.80;;;0.50;;
8098;SDS011;4092;47.876;9.372;2023-05-10T10:54:58;0.90;;;0.60;;
8098;SDS011;4092;47.876;9.372;2023-05-10T10:57:27;1.60;;;0.90;;
8098;SDS011;4092;47.876;9.372;2023-05-10T11:02:55;1.10;;;0.60;;
8098;SDS011;4092;47.876;9.372;2023-05-10T11:05:34;0.80;;;0.60;;
8098;SDS011;4092;47.876;9.372;2023-05-10T11:08:26;1.03;;;0.90;;
8098;SDS011;4092;47.876;9.372;2023-05-10T11:11:02;1.23;;;0.90;;
8098;SDS011;4092;47.876;9.372;2023-05-10T11:13:32;1.43;;;0.70;;
8098;SDS011;4092;47.876;9.372;2023-05-10T11:16:16;9.20;;;0.90;;
8098;SDS011;4092;47.876;9.372;2023-05-10T11:18:56;0.93;;;0.70;;
8098;SDS011;4092;47.876;9.372;2023-05-10T11:21:26;1.00;;;0.70;;
8098;SDS011;4092;47.876;9.372;2023-05-10T11:23:54;0.90;;;0.70;;
8098;SDS011;4092;47.876;9.372;2023-05-10T11:26:22;0.80;;;0.60;;
8098;SDS011;4092;47.876;9.372;2023-05-10T11:28:51;1.63;;;0.80;;
8098;SDS011;4092;47.876;9.372;2023-05-10T11:31:20;0.80;;;0.60;;
8098;SDS011;4092;47.876;9.372;2023-05-10T11:33:48;1.10;;;0.80;;
8098;SDS011;4092;47.876;9.372;2023-05-10T11:36:18;1.53;;;0.90;;
8098;SDS011;4092;47.876;9.372;2023-05-10T11:38:47;0.97;;;0.80;;
8098;SDS011;4092;47.876;9.372;2023-05-10T11:41:15;0.97;;;0.77;;
8098;SDS011;4092;47.876;9.372;2023-05-10T11:43:44;1.10;;;0.90;;
8098;SDS011;4092;47.876;9.372;2023-05-10T11:46:13;1.83;;;0.70;;
8098;SDS011;4092;47.876;9.372;2023-05-10T11:48:42;1.17;;;0.80;;
8098;SDS011;4092;47.876;9.372;2023-05-10T11:51:10;1.40;;;1.00;;
8098;SDS011;4092;47.876;9.372;2023-05-10T11:53:41;0.90;;;0.70;;
8098;SDS011;4092;47.876;9.372;2023-05-10T11:56:09;1.00;;;0.80;;
8098;SDS011;4092;47.876;9.372;2023-05-10T11:58:37;0.90;;;0.60;;
8098;SDS011;4092;47.876;9.372;2023-05-10T12:01:05;1.63;;;0.80;;
8098;SDS011;4092;47.876;9.372;2023-05-10T12:03:34;1.73;;;0.80;;
8098;SDS011;4092;47.876;9.372;2023-05-10T12:06:02;0.90;;;0.73;;
8098;SDS011;4092;47.876;9.372;2023-05-10T12:08:29;1.10;;;0.90;;
8098;SDS011;4092;47.876;9.372;2023-05-10T12:11:05;1.00;;;0.87;;
8098;SDS011;4092;47.876;9.372;2023-05-10T12:13:37;1.03;;;0.70;;
8098;SDS011;4092;47.876;9.372;2023-05-10T12:19:26;1.30;;;1.10;;
8098;SDS011;4092;47.876;9.372;2023-05-10T12:21:54;1.10;;;0.70;;
8098;SDS011;4092;47.876;9.372;2023-05-10T12:24:21;1.00;;;0.80;;
8098;SDS011;4092;47.876;9.372;2023-05-10T12:26:52;1.30;;;1.20;;
8098;SDS011;4092;47.876;9.372;2023-05-10T12:29:19;2.27;;;1.30;;
8098;SDS011;4092;47.876;9.372;2023-05-10T12:31:52;1.10;;;0.80;;
8098;SDS011;4092;47.876;9.372;2023-05-10T12:34:24;2.80;;;1.00;;
8098;SDS011;4092;47.876;9.372;2023-05-10T12:36:52;3.07;;;1.33;;
8098;SDS011;4092;47.876;9.372;2023-05-10T12:39:23;1.67;;;1.50;;
8098;SDS011;4092;47.876;9.372;2023-05-10T12:41:54;1.40;;;1.10;;
8098;SDS011;4092;47.876;9.372;2023-05-10T12:44:21;1.57;;;1.47;;
8098;SDS011;4092;47.876;9.372;2023-05-10T12:46:54;2.40;;;1.03;;
8098;SDS011;4092;47.876;9.372;2023-05-10T12:49:21;1.90;;;1.20;;
8098;SDS011;4092;47.876;9.372;2023-05-10T12:51:49;5.80;;;1.00;;
8098;SDS011;4092;47.876;9.372;2023-05-10T12:54:16;1.27;;;0.90;;
8098;SDS011;4092;47.876;9.372;2023-05-10T12:56:43;1.23;;;0.93;;
8098;SDS011;4092;47.876;9.372;2023-05-10T12:59:11;3.73;;;1.20;;
8098;SDS011;4092;47.876;9.372;2023-05-10T13:01:38;1.30;;;1.00;;
8098;SDS011;4092;47.876;9.372;2023-05-10T13:04:05;4.50;;;1.40;;
8098;SDS011;4092;47.876;9.372;2023-05-10T13:06:32;1.60;;;1.10;;
8098;SDS011;4092;47.876;9.372;2023-05-10T13:09:20;3.87;;;1.27;;
8098;SDS011;4092;47.876;9.372;2023-05-10T13:26:06;2.87;;;0.93;;
8098;SDS011;4092;47.876;9.372;2023-05-10T13:28:33;1.63;;;0.93;;
8098;SDS011;4092;47.876;9.372;2023-05-10T13:31:05;5.90;;;1.10;;
8098;SDS011;4092;47.876;9.372;2023-05-10T13:33:35;1.60;;;0.90;;
8098;SDS011;4092;47.876;9.372;2023-05-10T13:36:05;1.93;;;1.33;;
8098;SDS011;4092;47.876;9.372;2023-05-10T13:38:35;2.40;;;1.30;;
8098;SDS011;4092;47.876;9.372;2023-05-10T13:41:07;2.60;;;1.50;;
8098;SDS011;4092;47.876;9.372;2023-05-10T13:43:34;1.73;;;1.60;;
8098;SDS011;4092;47.876;9.372;2023-05-10T13:46:01;1.40;;;1.20;;
8098;SDS011;4092;47.876;9.372;2023-05-10T13:48:28;2.50;;;1.30;;
8098;SDS011;4092;47.876;9.372;2023-05-10T13:50:55;1.23;;;1.00;;
8098;SDS011;4092;47.876;9.372;2023-05-10T13:53:22;1.30;;;1.03;;
8098;SDS011;4092;47.876;9.372;2023-05-10T13:55:50;1.67;;;1.10;;
8098;SDS011;4092;47.876;9.372;2023-05-10T13:58:18;2.17;;;1.13;;
8098;SDS011;4092;47.876;9.372;2023-05-10T14:00:45;1.30;;;1.10;;
8098;SDS011;4092;47.876;9.372;2023-05-10T14:03:13;2.60;;;2.00;;
8098;SDS011;4092;47.876;9.372;2023-05-10T14:05:40;1.20;;;0.93;;
8098;SDS011;4092;47.876;9.372;2023-05-10T14:08:07;1.50;;;0.90;;
8098;SDS011;4092;47.876;9.372;2023-05-10T14:10:35;2.50;;;1.60;;
8098;SDS011;4092;47.876;9.372;2023-05-10T14:13:02;2.10;;;1.70;;
8098;SDS011;4092;47.876;9.372;2023-05-10T14:15:30;1.73;;;1.20;;
8098;SDS011;4092;47.876;9.372;2023-05-10T14:17:57;1.10;;;0.90;;
8098;SDS011;4092;47.876;9.372;2023-05-10T14:20:24;2.70;;;1.27;;
8098;SDS011;4092;47.876;9.372;2023-05-10T14:22:55;1.20;;;1.00;;
8098;SDS011;4092;47.876;9.372;2023-05-10T14:25:22;2.10;;;1.33;;
8098;SDS011;4092;47.876;9.372;2023-05-10T14:27:49;1.50;;;1.00;;
8098;SDS011;4092;47.876;9.372;2023-05-10T14:30:21;1.57;;;1.20;;
8098;SDS011;4092;47.876;9.372;2023-05-10T14:32:50;4.63;;;1.10;;
8098;SDS011;4092;47.876;9.372;2023-05-10T14:35:19;2.20;;;1.20;;
8098;SDS011;4092;47.876;9.372;2023-05-10T14:37:46;1.10;;;0.83;;
8098;SDS011;4092;47.876;9.372;2023-05-10T14:40:13;4.27;;;2.07;;
8098;SDS011;4092;47.876;9.372;2023-05-10T14:42:41;2.30;;;0.80;;
8098;SDS011;4092;47.876;9.372;2023-05-10T14:45:09;0.90;;;0.80;;
8098;SDS011;4092;47.876;9.372;2023-05-10T14:47:37;2.23;;;1.93;;
8098;SDS011;4092;47.876;9.372;2023-05-10T14:50:06;1.10;;;0.90;;
8098;SDS011;4092;47.876;9.372;2023-05-10T14:52:33;1.00;;;0.70;;
8098;SDS011;4092;47.876;9.372;2023-05-10T14:55:01;1.37;;;0.87;;
8098;SDS011;4092;47.876;9.372;2023-05-10T14:57:30;2.90;;;0.87;;
8098;SDS011;4092;47.876;9.372;2023-05-10T14:59:57;1.63;;;0.70;;
8098;SDS011;4092;47.876;9.372;2023-05-10T15:02:24;2.93;;;1.00;;
8098;SDS011;4092;47.876;9.372;2023-05-10T15:04:51;0.97;;;0.83;;
8098;SDS011;4092;47.876;9.372;2023-05-10T15:07:20;1.23;;;0.80;;
8098;SDS011;4092;47.876;9.372;2023-05-10T15:09:47;2.30;;;1.07;;
8098;SDS011;4092;47.876;9.372;2023-05-10T15:12:14;1.30;;;0.80;;
8098;SDS011;4092;47.876;9.372;2023-05-10T15:14:41;3.30;;;1.00;;
8098;SDS011;4092;47.876;9.372;2023-05-10T15:17:08;1.50;;;1.00;;
8098;SDS011;4092;47.876;9.372;2023-05-10T15:19:37;9.50;;;1.20;;
8098;SDS011;4092;47.876;9.372;2023-05-10T15:22:04;1.03;;;0.60;;
8098;SDS011;4092;47.876;9.372;2023-05-10T15:24:33;1.20;;;0.90;;
8098;SDS011;4092;47.876;9.372;2023-05-10T15:27:00;0.97;;;0.73;;
8098;SDS011;4092;47.876;9.372;2023-05-10T15:29:27;1.00;;;0.60;;
8098;SDS011;4092;47.876;9.372;2023-05-10T15:31:56;0.90;;;0.70;;
8098;SDS011;4092;47.876;9.372;2023-05-10T15:34:23;3.80;;;1.47;;
8098;SDS011;4092;47.876;9.372;2023-05-10T15:36:50;1.00;;;0.80;;
8098;SDS011;4092;47.876;9.372;2023-05-10T15:39:17;1.73;;;0.93;;
8098;SDS011;4092;47.876;9.372;2023-05-10T15:41:46;4.47;;;0.80;;
8098;SDS011;4092;47.876;9.372;2023-05-10T15:44:13;1.00;;;0.70;;
8098;SDS011;4092;47.876;9.372;2023-05-10T15:46:40;1.70;;;0.83;;
8098;SDS011;4092;47.876;9.372;2023-05-10T15:49:07;1.03;;;0.80;;
8098;SDS011;4092;47.876;9.372;2023-05-10T15:51:34;1.10;;;0.80;;
8098;SDS011;4092;47.876;9.372;2023-05-10T15:54:02;1.50;;;1.00;;
8098;SDS011;4092;47.876;9.372;2023-05-10T15:56:31;1.77;;;0.80;;